DeKalb, IL

3:55 AM CST on January 17, 2017 (GMT -0600)
Maplewood | | Change Station

Elev 902 ft 41.93 °N, 88.74 °W | Updated 2 minutes ago

Rain
Rain
35.9 °F
Feels Like 36 °F
N
0.0
Wind Variable Wind from North
Gusts 3.0 mph

Today
High -- | Low -- °F
--% Chance of Precip.
Yesterday
High -- | Low -- °F
Precip. -- in
Pressure 29.76 in
Visibility 3.0 miles
Clouds Overcast 400 ft
Windchill 36 °F
Dew Point 35 °F
Humidity 98%
Rainfall 0.43 in
Snow Depth Not available.
7:19 AM 4:51 PM
Waning Gibbous, 74% visible
METAR KDKB 170935Z AUTO 31004KT 3SM RA OVC004 02/02 A2976 RMK AO2 LTG DSNT E P0005 T00200019
Pressure 29.76 in
Visibility 3.0 miles
Clouds Overcast 400 ft
Windchill 36 °F
Dew Point 35 °F
Humidity 98%
Rainfall 0.43 in
Snow Depth Not available.
7:19 AM 4:51 PM
Waning Gibbous, 74% visible
METAR KDKB 170935Z AUTO 31004KT 3SM RA OVC004 02/02 A2976 RMK AO2 LTG DSNT E P0005 T00200019

Get Your Daily Forecast Email!

Thanks for signing up!

Be on the lookout for a verification email in your inbox.

You'll start receiving the daily forecast at 8 AM.

×

10-Day Weather Forecast

Almanac

Astronomy

Jan. 17, 2017 Rise Set
Actual Time
Civil Twilight
Nautical Twilight
Astronomical Twilight
Moon
Length of Visible Light
Length of Day
Tomorrow will be .
, % of the Moon is Illuminated

Today's Extremes

State Highs State Lows

Community

WunderPhotos

Upload Photos

1,962,540 photos uploaded!

WunderBlog® & News

Nearby

Air Quality

  Air Quality AQ Index Pollutant
Not available.

Snow Depth

Station Depth Elevation

Earthquake Activity

City Distance Mag. Time & Date
Minimum magnitude displayed is 2.5.

Coastal Water Temperatures

Place Temperature

Stations

Nearby Weather Stations

Station Location Temp. Windchill Dew Point Humidity Wind Precip. Elev Updated Type
                   

Watches & Warnings

Dense Fog Advisory
Issued: 3:35 AM CST Jan. 17, 2017 – National Weather Service

... Dense fog advisory remains in effect until 10 am CST this
morning...

* visibility... quarter mile or less.

* Impacts... low visibilities will make travel hazardous across
the region.

Precautionary/preparedness actions...

A dense fog advisory means visibilities will frequently be
reduced to less than one quarter mile. If driving... slow down...
use your headlights... and leave plenty of distance ahead of you.



Bmd


Marine Fog Advisory
Issued: 10:38 PM CST Jan. 16, 2017 – National Weather Service

... Dense fog advisory now in effect until 10 am CST Tuesday...

* visibility... less than 1/2 mile.

Precautionary/preparedness actions...

A dense fog advisory means visibilities will frequently be
reduced to less than one mile. Inexperienced mariners...
especially those operating smaller vessels should avoid
navigating in these conditions.